Time;durP1;ratioP1;P1;durP2;ratioP2;P2;SDS_P1;SDS_P2;PMS_P1;PMS_P2;Temp;Humidity;BMP_temperature;BMP_pressure;BME280_temperature;BME280_humidity;BME280_pressure;Samples;Min_cycle;Max_cycle;Signal;HPM_P1;HPM_P2
2021/11/07 00:05:07;;;;;;;2.90;1.48;;;;;;;;;;4994955;28;20621;-76
2021/11/07 00:07:54;;;;;;;1.45;1.33;;;;;;;;;;4994088;28;20205;-78
2021/11/07 00:13:21;;;;;;;3.75;1.75;;;;;;;;;;4994862;28;20350;-78
2021/11/07 00:15:47;;;;;;;2.95;1.70;;;;;;;;;;4993744;28;20182;-78
2021/11/07 00:18:34;;;;;;;2.60;1.45;;;;;;;;;;4993450;28;20210;-78
2021/11/07 00:21:07;;;;;;;1.75;1.38;;;;;;;;;;4993427;28;20695;-77
2021/11/07 00:26:31;;;;;;;3.17;1.50;;;;;;;;;;4989887;28;20270;-78
2021/11/07 00:29:04;;;;;;;2.10;1.10;;;;;;;;;;4974769;28;20176;-77
2021/11/07 00:31:43;;;;;;;2.88;1.38;;;;;;;;;;4973237;28;20195;-77
2021/11/07 00:37:00;;;;;;;3.75;1.88;;;;;;;;;;4987437;28;20254;-77
2021/11/07 00:42:26;;;;;;;2.33;1.40;;;;;;;;;;4974364;28;20222;-77
2021/11/07 00:45:05;;;;;;;2.55;1.45;;;;;;;;;;4974182;28;20219;-78
2021/11/07 00:50:04;;;;;;;3.92;1.40;;;;;;;;;;4974030;28;20195;-76
2021/11/07 00:52:39;;;;;;;6.95;1.55;;;;;;;;;;4973836;28;20192;-77
2021/11/07 00:55:12;;;;;;;4.32;1.90;;;;;;;;;;4974114;28;20179;-78
2021/11/07 00:57:44;;;;;;;2.95;1.58;;;;;;;;;;5005169;28;20213;-79
2021/11/07 01:00:27;;;;;;;2.63;1.30;;;;;;;;;;4992609;28;20187;-79
2021/11/07 01:02:58;;;;;;;3.83;1.67;;;;;;;;;;4992246;28;20569;-80
2021/11/07 01:05:26;;;;;;;1.90;1.27;;;;;;;;;;4993821;28;20212;-80
2021/11/07 01:07:52;;;;;;;3.20;1.60;;;;;;;;;;4991931;28;20544;-77
2021/11/07 01:10:19;;;;;;;9.40;2.13;;;;;;;;;;4993000;28;20637;-80
2021/11/07 01:12:45;;;;;;;2.58;1.70;;;;;;;;;;4992005;28;20204;-81
2021/11/07 01:15:11;;;;;;;4.22;1.67;;;;;;;;;;4991260;28;20200;-78
2021/11/07 01:17:37;;;;;;;1.85;1.20;;;;;;;;;;4993779;28;20183;-79
2021/11/07 01:20:04;;;;;;;6.45;1.75;;;;;;;;;;4993112;28;20234;-78
2021/11/07 01:25:15;;;;;;;2.60;1.60;;;;;;;;;;4993299;28;20222;-79
2021/11/07 01:27:43;;;;;;;2.50;1.57;;;;;;;;;;4992548;28;20187;-78
2021/11/07 01:30:15;;;;;;;4.03;1.52;;;;;;;;;;4987154;28;20454;-79
2021/11/07 01:32:45;;;;;;;4.93;1.70;;;;;;;;;;4987843;28;20575;-79
2021/11/07 01:35:36;;;;;;;2.13;1.60;;;;;;;;;;4973748;28;20211;-78
2021/11/07 01:40:33;;;;;;;5.65;2.55;;;;;;;;;;4973794;28;20206;-77
2021/11/07 01:43:00;;;;;;;3.35;1.27;;;;;;;;;;4972956;28;20200;-78
2021/11/07 01:45:31;;;;;;;5.03;2.00;;;;;;;;;;4973063;28;20554;-79
2021/11/07 01:48:08;;;;;;;3.28;1.73;;;;;;;;;;4973366;28;20611;-78
2021/11/07 01:50:39;;;;;;;4.90;1.58;;;;;;;;;;4973677;28;20184;-80
2021/11/07 01:53:16;;;;;;;5.35;1.83;;;;;;;;;;4972341;28;20574;-80
2021/11/07 01:55:42;;;;;;;3.85;1.75;;;;;;;;;;4973530;28;20179;-79
2021/11/07 01:58:08;;;;;;;3.37;1.90;;;;;;;;;;4988427;28;20180;-77
2021/11/07 02:00:34;;;;;;;4.03;1.77;;;;;;;;;;4973001;28;20786;-78
2021/11/07 02:03:00;;;;;;;2.63;1.77;;;;;;;;;;4977526;28;20564;-77
2021/11/07 02:05:26;;;;;;;2.75;1.80;;;;;;;;;;4992142;28;20207;-78
2021/11/07 02:07:52;;;;;;;2.45;1.50;;;;;;;;;;4992029;28;20186;-79
2021/11/07 02:10:19;;;;;;;5.10;2.20;;;;;;;;;;4982468;28;20192;-79
2021/11/07 02:12:45;;;;;;;4.38;1.80;;;;;;;;;;4972706;28;20489;-78
2021/11/07 02:15:13;;;;;;;5.82;1.55;;;;;;;;;;4972246;28;20180;-77
2021/11/07 02:17:40;;;;;;;5.40;1.98;;;;;;;;;;4972854;28;20211;-79
2021/11/07 02:20:09;;;;;;;1.60;1.25;;;;;;;;;;4973112;28;20245;-76
2021/11/07 02:22:36;;;;;;;2.72;1.45;;;;;;;;;;4971777;28;20195;-77
2021/11/07 02:25:03;;;;;;;5.43;1.60;;;;;;;;;;4972075;28;20696;-78
2021/11/07 02:27:28;;;;;;;6.65;2.17;;;;;;;;;;4972934;28;20615;-77
2021/11/07 02:29:54;;;;;;;1.63;1.20;;;;;;;;;;4972744;28;20215;-75
2021/11/07 02:32:21;;;;;;;2.33;1.73;;;;;;;;;;4972302;28;20495;-80
2021/11/07 02:34:48;;;;;;;2.90;1.67;;;;;;;;;;4973446;28;20211;-78
2021/11/07 02:37:14;;;;;;;3.30;1.60;;;;;;;;;;4971082;28;20334;-79
2021/11/07 02:39:40;;;;;;;2.30;1.60;;;;;;;;;;4971682;28;20194;-76
2021/11/07 02:42:07;;;;;;;3.03;1.77;;;;;;;;;;4972344;28;20286;-76
2021/11/07 02:44:34;;;;;;;2.53;1.70;;;;;;;;;;4973095;28;20206;-78
2021/11/07 02:47:01;;;;;;;2.28;1.60;;;;;;;;;;4976511;28;20180;-76
2021/11/07 02:49:27;;;;;;;10.07;2.28;;;;;;;;;;4976940;28;20214;-79
2021/11/07 02:51:55;;;;;;;2.33;1.50;;;;;;;;;;4975687;28;20570;-77
2021/11/07 02:54:21;;;;;;;2.05;1.85;;;;;;;;;;4976812;28;20659;-77
2021/11/07 02:56:49;;;;;;;2.20;1.60;;;;;;;;;;4976545;28;20228;-80
2021/11/07 02:59:19;;;;;;;3.33;2.00;;;;;;;;;;4976136;28;20183;-77
2021/11/07 03:01:45;;;;;;;1.50;1.38;;;;;;;;;;4976009;28;20200;-78
2021/11/07 03:04:11;;;;;;;8.65;2.17;;;;;;;;;;4982607;28;20195;-77
2021/11/07 03:06:38;;;;;;;2.53;1.75;;;;;;;;;;4993967;28;20614;-79
2021/11/07 03:09:05;;;;;;;4.78;1.70;;;;;;;;;;4996421;28;20183;-78
2021/11/07 03:11:38;;;;;;;2.25;1.70;;;;;;;;;;4993970;28;20275;-79
2021/11/07 03:14:05;;;;;;;5.35;2.00;;;;;;;;;;4994990;28;20184;-81
2021/11/07 03:16:31;;;;;;;2.03;1.80;;;;;;;;;;4995452;28;20191;-78
2021/11/07 03:18:57;;;;;;;4.82;2.00;;;;;;;;;;4995737;28;20252;-77
2021/11/07 03:21:23;;;;;;;2.92;2.40;;;;;;;;;;4994335;28;20730;-77
2021/11/07 03:23:50;;;;;;;2.13;1.85;;;;;;;;;;4995627;28;20262;-77
2021/11/07 03:26:24;;;;;;;2.60;1.88;;;;;;;;;;4995239;28;20591;-77
2021/11/07 03:28:54;;;;;;;4.88;2.00;;;;;;;;;;4995051;28;20171;-79
2021/11/07 03:31:41;;;;;;;1.92;1.60;;;;;;;;;;4994761;28;20195;-79
2021/11/07 03:34:29;;;;;;;1.75;1.65;;;;;;;;;;4996509;28;20246;-77
2021/11/07 03:36:57;;;;;;;1.90;1.70;;;;;;;;;;4994218;28;20599;-78
2021/11/07 03:39:25;;;;;;;2.25;1.75;;;;;;;;;;4990310;28;20188;-79
2021/11/07 03:41:51;;;;;;;3.42;2.38;;;;;;;;;;4981071;28;20211;-78
2021/11/07 03:44:18;;;;;;;3.17;2.08;;;;;;;;;;4988503;28;20295;-78
2021/11/07 03:46:45;;;;;;;3.20;2.03;;;;;;;;;;4977225;28;20231;-80
2021/11/07 03:49:12;;;;;;;3.22;2.25;;;;;;;;;;4995846;28;20183;-78
2021/11/07 03:51:38;;;;;;;3.40;1.92;;;;;;;;;;4996172;28;20206;-78
2021/11/07 03:54:05;;;;;;;2.30;2.10;;;;;;;;;;4996110;28;20179;-79
2021/11/07 03:56:31;;;;;;;1.88;1.70;;;;;;;;;;4977515;28;20234;-78
2021/11/07 03:58:57;;;;;;;3.10;2.20;;;;;;;;;;4996080;28;20168;-80
2021/11/07 04:01:24;;;;;;;4.97;1.93;;;;;;;;;;4996156;28;20192;-79
2021/11/07 04:03:50;;;;;;;2.97;2.13;;;;;;;;;;4996506;28;20458;-79
2021/11/07 04:06:16;;;;;;;6.45;2.90;;;;;;;;;;4996422;28;20635;-78
2021/11/07 04:08:42;;;;;;;2.30;2.10;;;;;;;;;;4996292;28;20200;-76
2021/11/07 04:11:09;;;;;;;1.70;1.60;;;;;;;;;;4996088;28;20172;-79
2021/11/07 04:13:38;;;;;;;2.20;2.00;;;;;;;;;;4994947;28;20680;-78
2021/11/07 04:16:05;;;;;;;3.10;2.40;;;;;;;;;;4996242;28;20266;-81
2021/11/07 04:18:31;;;;;;;3.10;2.10;;;;;;;;;;4994664;28;20246;-79
2021/11/07 04:20:57;;;;;;;3.90;2.25;;;;;;;;;;4995594;28;20214;-79
2021/11/07 04:23:23;;;;;;;2.58;1.65;;;;;;;;;;4995451;28;20207;-79
2021/11/07 04:25:49;;;;;;;3.80;2.20;;;;;;;;;;4995991;28;20182;-79
2021/11/07 04:28:15;;;;;;;2.30;2.00;;;;;;;;;;5011069;28;20553;-80
2021/11/07 04:30:42;;;;;;;2.55;2.10;;;;;;;;;;5010880;28;20206;-78
2021/11/07 04:33:08;;;;;;;4.82;2.28;;;;;;;;;;4995406;28;20199;-77
2021/11/07 04:35:34;;;;;;;2.67;2.10;;;;;;;;;;4994320;28;20550;-79
2021/11/07 04:38:00;;;;;;;3.03;2.73;;;;;;;;;;4995719;28;20418;-77
2021/11/07 04:40:27;;;;;;;2.47;2.20;;;;;;;;;;5010809;28;20425;-77
2021/11/07 04:42:53;;;;;;;2.80;2.50;;;;;;;;;;4994115;28;20235;-78
2021/11/07 04:45:19;;;;;;;2.10;1.90;;;;;;;;;;4995475;28;20219;-79
2021/11/07 04:47:46;;;;;;;2.95;2.45;;;;;;;;;;4994116;28;20179;-78
2021/11/07 04:50:15;;;;;;;2.80;2.38;;;;;;;;;;4995581;28;20533;-80
2021/11/07 04:52:41;;;;;;;3.33;2.42;;;;;;;;;;4995006;28;20184;-78
2021/11/07 04:55:08;;;;;;;3.05;2.75;;;;;;;;;;4994445;28;20526;-80
2021/11/07 04:57:34;;;;;;;2.95;2.75;;;;;;;;;;4995445;28;20228;-79
2021/11/07 05:00:00;;;;;;;3.53;2.70;;;;;;;;;;4995660;28;20172;-80
2021/11/07 05:02:26;;;;;;;4.45;2.80;;;;;;;;;;4995016;28;20290;-78
2021/11/07 05:04:55;;;;;;;3.85;2.80;;;;;;;;;;4995376;28;20239;-78
2021/11/07 05:07:21;;;;;;;2.75;2.55;;;;;;;;;;4993808;28;20683;-77
2021/11/07 05:09:47;;;;;;;4.63;2.30;;;;;;;;;;4993876;28;20209;-76
2021/11/07 05:12:13;;;;;;;3.17;2.85;;;;;;;;;;4994897;28;20565;-80
2021/11/07 05:14:39;;;;;;;3.20;2.60;;;;;;;;;;4995285;28;20310;-77
2021/11/07 05:17:05;;;;;;;3.50;2.93;;;;;;;;;;4992208;28;20284;-78
2021/11/07 05:19:33;;;;;;;2.90;2.47;;;;;;;;;;4995040;28;20501;-79
2021/11/07 05:21:59;;;;;;;3.10;2.78;;;;;;;;;;4994413;28;20282;-77
2021/11/07 05:24:26;;;;;;;4.63;2.50;;;;;;;;;;4993923;28;20555;-77
2021/11/07 05:26:52;;;;;;;2.67;2.47;;;;;;;;;;4994884;28;20222;-77
2021/11/07 05:29:18;;;;;;;3.30;3.00;;;;;;;;;;4994751;28;20230;-78
2021/11/07 05:31:44;;;;;;;2.53;2.30;;;;;;;;;;4993162;28;20223;-79
2021/11/07 05:34:10;;;;;;;2.15;1.95;;;;;;;;;;4994872;28;20497;-78
2021/11/07 05:36:40;;;;;;;3.72;2.60;;;;;;;;;;4993329;28;20221;-79
2021/11/07 05:39:07;;;;;;;6.30;2.95;;;;;;;;;;4994639;28;20238;-79
2021/11/07 05:41:33;;;;;;;3.33;2.97;;;;;;;;;;4994111;28;20282;-78
2021/11/07 05:43:58;;;;;;;4.80;2.90;;;;;;;;;;4994686;28;20306;-79
2021/11/07 05:46:24;;;;;;;6.47;3.60;;;;;;;;;;4993123;28;20734;-78
2021/11/07 05:48:51;;;;;;;3.33;3.07;;;;;;;;;;4981470;28;20435;-79
2021/11/07 05:51:18;;;;;;;12.18;4.00;;;;;;;;;;4994168;28;20447;-77
2021/11/07 05:53:44;;;;;;;3.60;3.30;;;;;;;;;;4994069;28;20214;-79
2021/11/07 05:56:10;;;;;;;4.05;3.63;;;;;;;;;;4994164;28;20651;-79
2021/11/07 05:58:36;;;;;;;4.63;3.30;;;;;;;;;;4994294;28;20202;-77
2021/11/07 06:01:02;;;;;;;3.70;3.40;;;;;;;;;;4993983;28;20179;-78
2021/11/07 06:03:28;;;;;;;3.95;3.65;;;;;;;;;;4994258;28;20256;-79
2021/11/07 06:05:54;;;;;;;7.57;3.58;;;;;;;;;;4994357;28;20628;-79
2021/11/07 06:08:20;;;;;;;3.72;3.42;;;;;;;;;;4994416;28;20176;-76
2021/11/07 06:10:46;;;;;;;3.60;2.92;;;;;;;;;;4994146;28;20175;-80
2021/11/07 06:13:13;;;;;;;4.43;3.27;;;;;;;;;;4993681;28;20210;-79
2021/11/07 06:15:38;;;;;;;4.75;3.70;;;;;;;;;;4993943;28;20767;-79
2021/11/07 06:18:05;;;;;;;3.90;3.23;;;;;;;;;;4993891;28;20187;-79
2021/11/07 06:20:30;;;;;;;2.83;2.53;;;;;;;;;;4990937;28;20435;-79
2021/11/07 06:22:57;;;;;;;4.63;3.05;;;;;;;;;;4974061;28;20566;-77
2021/11/07 06:25:23;;;;;;;2.72;2.50;;;;;;;;;;4974258;28;20225;-79
2021/11/07 06:27:49;;;;;;;3.20;2.90;;;;;;;;;;4973131;28;20541;-78
2021/11/07 06:30:18;;;;;;;4.45;3.00;;;;;;;;;;4973079;28;20266;-77
2021/11/07 06:32:44;;;;;;;4.10;3.60;;;;;;;;;;4974068;28;20199;-78
2021/11/07 06:35:11;;;;;;;3.85;3.30;;;;;;;;;;4974367;28;20672;-77
2021/11/07 06:37:37;;;;;;;3.80;3.10;;;;;;;;;;4974342;28;20239;-80
2021/11/07 06:40:04;;;;;;;2.97;2.78;;;;;;;;;;4972952;28;20184;-78
2021/11/07 06:42:30;;;;;;;3.80;2.72;;;;;;;;;;4972767;28;20208;-79
2021/11/07 06:44:56;;;;;;;3.00;2.80;;;;;;;;;;4974233;28;20204;-79
2021/11/07 06:47:22;;;;;;;3.40;3.10;;;;;;;;;;4974298;28;20184;-77
2021/11/07 06:49:49;;;;;;;6.70;3.03;;;;;;;;;;4973734;28;20442;-78
2021/11/07 06:52:18;;;;;;;3.30;3.00;;;;;;;;;;4973774;28;20569;-79
2021/11/07 06:54:44;;;;;;;4.18;2.60;;;;;;;;;;4973783;28;20177;-77
2021/11/07 06:57:11;;;;;;;5.35;3.25;;;;;;;;;;4974133;28;20193;-78
2021/11/07 06:59:37;;;;;;;5.40;3.17;;;;;;;;;;4974392;28;20183;-79
2021/11/07 07:02:03;;;;;;;4.78;2.65;;;;;;;;;;4973745;28;20704;-77
2021/11/07 07:04:29;;;;;;;2.60;2.40;;;;;;;;;;4974246;28;20207;-79
2021/11/07 07:06:55;;;;;;;5.95;3.20;;;;;;;;;;4974336;28;20708;-77
2021/11/07 07:09:34;;;;;;;4.72;3.15;;;;;;;;;;4989060;28;20180;-80
2021/11/07 07:12:48;;;;;;;6.78;3.25;;;;;;;;;;4973868;28;20200;-78
2021/11/07 07:14:56;;;;;;;5.07;3.30;;;;;;;;;;4983353;28;20192;-80
2021/11/07 07:17:43;;;;;;;5.35;4.25;;;;;;;;;;4974110;28;20196;-79
2021/11/07 07:21:00;;;;;;;4.85;3.53;;;;;;;;;;4974183;28;20191;-77
2021/11/07 07:31:26;;;;;;;6.28;5.13;;;;;;;;;;4991222;28;20202;-78
2021/11/07 07:34:02;;;;;;;6.13;5.22;;;;;;;;;;4996557;28;20191;-80
2021/11/07 07:36:28;;;;;;;7.10;5.90;;;;;;;;;;4996495;28;20175;-79
2021/11/07 07:38:56;;;;;;;5.30;4.75;;;;;;;;;;4996616;28;20191;-80
2021/11/07 07:41:22;;;;;;;7.35;5.03;;;;;;;;;;4996400;28;20195;-77
2021/11/07 07:43:48;;;;;;;7.15;6.15;;;;;;;;;;4996622;28;20210;-78
2021/11/07 07:46:15;;;;;;;6.95;5.20;;;;;;;;;;4995462;28;20307;-77
2021/11/07 07:48:43;;;;;;;6.63;4.85;;;;;;;;;;4996823;28;20175;-79
2021/11/07 07:51:10;;;;;;;7.25;6.50;;;;;;;;;;4996313;28;20175;-76
2021/11/07 07:53:36;;;;;;;10.10;6.50;;;;;;;;;;4996743;28;20195;-77
2021/11/07 07:56:02;;;;;;;10.32;7.25;;;;;;;;;;4996582;28;20187;-78
2021/11/07 07:58:28;;;;;;;13.05;7.45;;;;;;;;;;4996410;28;20549;-79
2021/11/07 08:00:55;;;;;;;7.93;7.18;;;;;;;;;;5013176;28;20193;-79
2021/11/07 08:03:22;;;;;;;8.75;7.40;;;;;;;;;;4996059;28;20598;-78
2021/11/07 08:05:48;;;;;;;9.95;8.15;;;;;;;;;;4995852;28;20592;-77
2021/11/07 08:08:14;;;;;;;8.43;7.72;;;;;;;;;;4996376;28;20186;-77
2021/11/07 08:10:41;;;;;;;10.05;8.02;;;;;;;;;;4996145;28;20176;-78
2021/11/07 08:13:07;;;;;;;8.13;7.45;;;;;;;;;;4996038;28;20644;-80
2021/11/07 08:15:33;;;;;;;8.07;6.57;;;;;;;;;;4996394;28;20175;-78
2021/11/07 08:18:00;;;;;;;10.43;7.80;;;;;;;;;;4996234;28;20183;-79
2021/11/07 08:20:26;;;;;;;6.78;6.13;;;;;;;;;;4994896;28;20330;-79
2021/11/07 08:22:52;;;;;;;8.68;7.88;;;;;;;;;;4995452;28;20203;-78
2021/11/07 08:25:22;;;;;;;7.80;6.72;;;;;;;;;;4994738;28;20218;-79
2021/11/07 08:27:51;;;;;;;7.32;6.63;;;;;;;;;;4987492;28;20191;-78
2021/11/07 08:30:18;;;;;;;9.27;7.50;;;;;;;;;;4976394;28;20176;-79
2021/11/07 08:32:44;;;;;;;7.55;6.85;;;;;;;;;;4975846;28;20196;-79
2021/11/07 08:35:11;;;;;;;8.18;7.35;;;;;;;;;;4976240;28;20176;-78
2021/11/07 08:38:02;;;;;;;9.55;6.70;;;;;;;;;;4976318;28;20179;-78
2021/11/07 08:40:30;;;;;;;10.65;8.48;;;;;;;;;;4975940;28;20188;-78
2021/11/07 08:43:07;;;;;;;10.00;8.68;;;;;;;;;;4975224;28;20196;-78
2021/11/07 09:04:51;;;;;;;11.15;6.43;;;;;;;;;;4975617;28;20676;-77
2021/11/07 09:07:21;;;;;;;10.88;6.72;;;;;;;;;;4975555;28;20176;-79
2021/11/07 09:09:48;;;;;;;9.02;6.25;;;;;;;;;;4975849;28;20169;-77
2021/11/07 09:12:15;;;;;;;12.63;5.93;;;;;;;;;;4975211;28;20582;-79
2021/11/07 09:14:42;;;;;;;7.57;4.35;;;;;;;;;;4975630;28;20176;-79
2021/11/07 09:17:10;;;;;;;10.73;5.07;;;;;;;;;;4975461;28;20388;-79
2021/11/07 09:19:38;;;;;;;12.73;3.95;;;;;;;;;;4975535;28;20180;-78
2021/11/07 09:22:14;;;;;;;6.05;3.50;;;;;;;;;;4975019;28;20206;-78
2021/11/07 09:27:15;;;;;;;8.77;3.90;;;;;;;;;;4975600;28;20267;-77
2021/11/07 09:33:00;;;;;;;9.52;4.05;;;;;;;;;;4994127;28;20226;-77
2021/11/07 09:37:56;;;;;;;7.22;3.92;;;;;;;;;;4984623;28;20191;-79
2021/11/07 09:40:25;;;;;;;8.65;3.72;;;;;;;;;;4994599;28;20183;-80
2021/11/07 09:48:11;;;;;;;8.90;3.45;;;;;;;;;;4994529;28;20184;-77
2021/11/07 09:50:37;;;;;;;6.93;2.63;;;;;;;;;;4994615;28;20250;-77
2021/11/07 09:53:03;;;;;;;6.80;3.25;;;;;;;;;;4993088;28;20568;-77
2021/11/07 09:55:30;;;;;;;13.82;3.97;;;;;;;;;;4993646;28;20305;-79
2021/11/07 09:57:58;;;;;;;6.35;3.03;;;;;;;;;;4994446;28;20196;-77
2021/11/07 10:00:26;;;;;;;10.50;3.10;;;;;;;;;;4994387;28;20180;-79
2021/11/07 10:02:52;;;;;;;14.15;4.03;;;;;;;;;;4994004;28;20607;-78
2021/11/07 10:05:19;;;;;;;6.57;3.53;;;;;;;;;;5009310;28;20207;-78
2021/11/07 10:07:46;;;;;;;7.03;3.65;;;;;;;;;;4994135;28;20175;-77
2021/11/07 10:10:19;;;;;;;11.23;4.32;;;;;;;;;;4993375;28;20180;-81
2021/11/07 10:12:50;;;;;;;11.70;5.45;;;;;;;;;;4993741;28;20303;-79
2021/11/07 10:15:29;;;;;;;11.43;4.00;;;;;;;;;;4993938;28;20206;-78
2021/11/07 10:18:05;;;;;;;10.45;3.90;;;;;;;;;;4994025;28;20175;-79
2021/11/07 10:20:41;;;;;;;11.82;3.30;;;;;;;;;;4994143;28;20193;-80
2021/11/07 10:23:13;;;;;;;7.07;2.92;;;;;;;;;;4993918;28;20223;-80
2021/11/07 10:25:44;;;;;;;8.23;3.30;;;;;;;;;;4993897;28;20199;-78
2021/11/07 10:28:20;;;;;;;12.13;3.42;;;;;;;;;;4994082;28;20171;-78
2021/11/07 10:31:01;;;;;;;24.00;4.05;;;;;;;;;;4994170;28;20179;-76
2021/11/07 10:33:40;;;;;;;13.43;2.90;;;;;;;;;;4994336;28;20277;-78
2021/11/07 10:37:07;;;;;;;6.72;2.80;;;;;;;;;;5009027;28;20179;-79
2021/11/07 10:39:47;;;;;;;9.95;2.28;;;;;;;;;;4986052;28;20204;-78
2021/11/07 10:42:15;;;;;;;8.65;2.95;;;;;;;;;;4991648;28;20211;-78
2021/11/07 10:47:29;;;;;;;9.60;3.40;;;;;;;;;;4994389;28;20210;-78
2021/11/07 10:52:41;;;;;;;11.90;4.40;;;;;;;;;;4993757;28;20528;-79
2021/11/07 10:55:14;;;;;;;10.38;3.47;;;;;;;;;;4993642;28;20183;-78
2021/11/07 10:57:44;;;;;;;14.43;3.78;;;;;;;;;;4993440;28;20180;-77
2021/11/07 11:00:25;;;;;;;12.52;3.20;;;;;;;;;;4993348;28;20191;-77
2021/11/07 11:02:51;;;;;;;8.70;3.08;;;;;;;;;;4993787;28;20191;-77
2021/11/07 11:05:18;;;;;;;10.90;2.42;;;;;;;;;;4994681;28;20289;-76
2021/11/07 11:07:51;;;;;;;9.98;3.75;;;;;;;;;;4998406;28;20183;-77
2021/11/07 11:10:20;;;;;;;6.30;3.35;;;;;;;;;;4997630;28;20230;-77
2021/11/07 11:13:01;;;;;;;12.95;2.30;;;;;;;;;;4997336;28;20656;-76
2021/11/07 11:15:35;;;;;;;10.77;3.45;;;;;;;;;;4997759;28;20517;-78
2021/11/07 11:18:08;;;;;;;8.35;4.00;;;;;;;;;;5021286;28;20194;-78
2021/11/07 11:20:53;;;;;;;9.20;3.90;;;;;;;;;;4982876;28;20187;-77
2021/11/07 11:23:50;;;;;;;8.35;2.95;;;;;;;;;;5012574;28;20242;-77
2021/11/07 11:26:37;;;;;;;12.23;3.05;;;;;;;;;;4997570;28;20229;-77
2021/11/07 11:31:45;;;;;;;8.63;3.35;;;;;;;;;;4997345;28;20199;-78
2021/11/07 11:34:14;;;;;;;8.45;3.35;;;;;;;;;;4997672;28;20181;-78
2021/11/07 11:36:54;;;;;;;12.60;3.28;;;;;;;;;;4997435;28;20171;-78
2021/11/07 11:39:26;;;;;;;9.35;3.60;;;;;;;;;;4997550;28;20235;-78
2021/11/07 11:44:20;;;;;;;11.45;3.05;;;;;;;;;;4997682;28;20203;-79
2021/11/07 11:46:53;;;;;;;11.20;3.25;;;;;;;;;;4996862;28;20171;-77
2021/11/07 11:49:57;;;;;;;9.55;2.20;;;;;;;;;;4994881;28;20180;-78
2021/11/07 11:52:34;;;;;;;11.27;3.57;;;;;;;;;;4996766;28;20277;-77
2021/11/07 11:55:29;;;;;;;10.90;2.40;;;;;;;;;;4995668;28;20414;-77
2021/11/07 12:00:32;;;;;;;7.47;2.20;;;;;;;;;;4997366;28;20418;-79
2021/11/07 12:03:09;;;;;;;12.00;3.30;;;;;;;;;;4996967;28;20925;-78
2021/11/07 12:05:52;;;;;;;13.13;2.83;;;;;;;;;;4996678;28;20458;-77
2021/11/07 12:08:28;;;;;;;17.23;2.90;;;;;;;;;;4996798;28;20394;-79
2021/11/07 12:11:24;;;;;;;7.57;3.45;;;;;;;;;;4996657;28;20496;-79
2021/11/07 12:14:02;;;;;;;10.13;3.88;;;;;;;;;;4996741;28;20206;-78
2021/11/07 12:16:49;;;;;;;12.88;4.05;;;;;;;;;;4996154;28;20259;-79
2021/11/07 12:19:16;;;;;;;8.65;3.63;;;;;;;;;;4996539;28;20532;-79
2021/11/07 12:21:51;;;;;;;6.43;3.10;;;;;;;;;;4994905;28;20290;-80
2021/11/07 12:24:28;;;;;;;9.77;2.88;;;;;;;;;;4996106;28;20203;-77
2021/11/07 12:27:14;;;;;;;8.30;2.72;;;;;;;;;;4983177;28;20187;-79
2021/11/07 12:29:41;;;;;;;13.90;3.42;;;;;;;;;;4991121;28;20227;-78
2021/11/07 12:32:07;;;;;;;12.32;2.63;;;;;;;;;;4995596;28;20335;-78
2021/11/07 12:34:57;;;;;;;12.25;3.00;;;;;;;;;;5010812;28;20194;-77
2021/11/07 12:40:46;;;;;;;6.90;2.28;;;;;;;;;;4990605;28;20195;-77
2021/11/07 12:43:14;;;;;;;14.27;2.80;;;;;;;;;;4995480;28;20204;-79
2021/11/07 12:45:44;;;;;;;13.95;2.40;;;;;;;;;;4995535;28;20544;-78
2021/11/07 12:48:11;;;;;;;11.45;2.90;;;;;;;;;;4995552;28;20172;-77
2021/11/07 12:50:58;;;;;;;8.75;2.85;;;;;;;;;;4995406;28;20172;-81
2021/11/07 12:53:29;;;;;;;9.18;2.33;;;;;;;;;;4995378;28;20204;-77
2021/11/07 12:55:55;;;;;;;13.73;3.03;;;;;;;;;;4995555;28;20172;-76
2021/11/07 12:58:21;;;;;;;7.65;2.83;;;;;;;;;;4995247;28;20414;-77
2021/11/07 13:00:48;;;;;;;11.43;2.80;;;;;;;;;;4995367;28;20178;-78
2021/11/07 13:03:16;;;;;;;13.18;2.90;;;;;;;;;;4979191;28;20216;-78
2021/11/07 13:05:43;;;;;;;7.30;3.75;;;;;;;;;;4974500;28;20200;-77
2021/11/07 13:08:19;;;;;;;11.82;2.75;;;;;;;;;;4975935;28;20168;-79
2021/11/07 13:13:26;;;;;;;12.07;3.38;;;;;;;;;;4975663;28;20200;-77
2021/11/07 13:31:39;;;;;;;11.60;3.30;;;;;;;;;;4974923;28;20188;-78
2021/11/07 13:34:11;;;;;;;10.27;2.40;;;;;;;;;;4975202;28;20191;-77
2021/11/07 13:36:44;;;;;;;4.57;2.33;;;;;;;;;;4974880;28;20185;-79
2021/11/07 13:39:12;;;;;;;9.40;2.28;;;;;;;;;;4979636;28;20192;-78
2021/11/07 13:41:41;;;;;;;7.60;2.25;;;;;;;;;;4994192;28;20254;-77
2021/11/07 13:44:17;;;;;;;10.93;2.85;;;;;;;;;;4994139;28;20289;-77
2021/11/07 13:47:05;;;;;;;10.10;2.85;;;;;;;;;;4994250;28;20517;-77
2021/11/07 13:49:31;;;;;;;11.10;2.80;;;;;;;;;;5009179;28;20194;-79
2021/11/07 13:52:01;;;;;;;15.18;2.83;;;;;;;;;;5009043;28;20206;-76
2021/11/07 13:54:27;;;;;;;10.70;3.03;;;;;;;;;;4994360;28;20546;-77
2021/11/07 13:56:54;;;;;;;6.95;2.95;;;;;;;;;;4994109;28;20206;-78
2021/11/07 13:59:40;;;;;;;16.45;4.05;;;;;;;;;;4994044;28;20191;-78
2021/11/07 14:02:19;;;;;;;7.88;2.13;;;;;;;;;;4993741;28;20246;-78
2021/11/07 14:04:46;;;;;;;7.18;2.42;;;;;;;;;;4994132;28;20211;-77
2021/11/07 14:07:18;;;;;;;12.63;3.00;;;;;;;;;;4994118;28;20176;-78
2021/11/07 14:10:03;;;;;;;10.52;2.45;;;;;;;;;;4994239;28;20584;-76
2021/11/07 14:12:42;;;;;;;13.70;2.50;;;;;;;;;;4993900;28;20196;-77
2021/11/07 14:15:09;;;;;;;12.43;3.03;;;;;;;;;;4980060;28;20211;-77
2021/11/07 14:17:36;;;;;;;12.63;2.88;;;;;;;;;;5013570;28;20258;-78
2021/11/07 14:20:03;;;;;;;12.45;3.50;;;;;;;;;;5013601;28;20185;-76
2021/11/07 14:22:29;;;;;;;14.05;3.50;;;;;;;;;;5011759;28;20227;-77
2021/11/07 14:25:01;;;;;;;6.70;2.08;;;;;;;;;;5013336;28;20210;-78
2021/11/07 14:27:34;;;;;;;11.00;2.25;;;;;;;;;;5013281;28;20221;-77
2021/11/07 14:30:04;;;;;;;11.48;2.85;;;;;;;;;;5013402;28;20167;-77
2021/11/07 14:32:36;;;;;;;14.40;2.90;;;;;;;;;;5013232;28;20207;-77
2021/11/07 14:35:09;;;;;;;23.85;3.80;;;;;;;;;;5013274;28;20191;-77
2021/11/07 14:40:11;;;;;;;14.45;2.70;;;;;;;;;;5014780;28;20175;-77
2021/11/07 14:42:55;;;;;;;10.50;2.92;;;;;;;;;;5019549;28;20201;-78
2021/11/07 14:51:08;;;;;;;11.68;2.75;;;;;;;;;;5020170;28;20182;-76
2021/11/07 14:53:35;;;;;;;13.40;2.85;;;;;;;;;;5019543;28;20626;-76
2021/11/07 15:01:41;;;;;;;11.65;3.53;;;;;;;;;;4979536;28;20192;-77
2021/11/07 15:04:27;;;;;;;13.52;3.22;;;;;;;;;;4964240;28;20580;-78
2021/11/07 15:07:08;;;;;;;9.15;2.38;;;;;;;;;;4980554;28;20190;-77
2021/11/07 15:15:17;;;;;;;10.57;2.92;;;;;;;;;;4980644;28;20183;-78
2021/11/07 15:17:52;;;;;;;9.35;2.40;;;;;;;;;;4980487;28;20267;-78
2021/11/07 15:20:23;;;;;;;15.65;3.25;;;;;;;;;;4980481;28;20229;-77
2021/11/07 15:22:51;;;;;;;11.43;2.38;;;;;;;;;;4978831;28;20666;-78
2021/11/07 15:25:19;;;;;;;12.82;3.35;;;;;;;;;;4980362;28;20203;-77
2021/11/07 15:27:54;;;;;;;17.50;5.63;;;;;;;;;;4985531;28;20181;-76
2021/11/07 15:30:20;;;;;;;11.75;3.08;;;;;;;;;;5006158;28;20188;-77
2021/11/07 15:32:47;;;;;;;6.32;2.30;;;;;;;;;;4979940;28;20222;-78
2021/11/07 15:35:16;;;;;;;14.05;3.10;;;;;;;;;;4979876;28;20187;-77
2021/11/07 15:37:42;;;;;;;12.82;3.22;;;;;;;;;;4995372;28;20670;-77
2021/11/07 15:40:09;;;;;;;9.63;2.92;;;;;;;;;;4980101;28;20557;-78
2021/11/07 15:42:39;;;;;;;11.10;3.08;;;;;;;;;;4979809;28;20282;-77
2021/11/07 15:45:09;;;;;;;7.20;2.00;;;;;;;;;;4980053;28;20218;-76
2021/11/07 15:47:41;;;;;;;15.38;3.22;;;;;;;;;;4980101;28;20169;-76
2021/11/07 15:52:51;;;;;;;17.20;3.60;;;;;;;;;;4976557;28;20200;-78
2021/11/07 16:13:30;;;;;;;15.85;3.08;;;;;;;;;;4976620;28;20259;-77
2021/11/07 16:18:28;;;;;;;14.45;4.15;;;;;;;;;;4976916;28;20221;-77
2021/11/07 16:20:54;;;;;;;15.95;3.72;;;;;;;;;;4976379;28;20633;-78
2021/11/07 16:23:21;;;;;;;15.00;4.07;;;;;;;;;;4976376;28;20251;-78
2021/11/07 16:25:51;;;;;;;14.80;3.58;;;;;;;;;;4991284;28;21022;-76
2021/11/07 16:28:18;;;;;;;17.25;2.85;;;;;;;;;;4976363;28;20554;-77
2021/11/07 16:30:44;;;;;;;13.48;3.03;;;;;;;;;;4976104;28;20202;-77
2021/11/07 16:33:20;;;;;;;10.80;3.80;;;;;;;;;;4974605;28;20275;-76
2021/11/07 16:35:49;;;;;;;13.75;3.15;;;;;;;;;;4976440;28;20176;-76
2021/11/07 16:43:11;;;;;;;17.48;3.75;;;;;;;;;;4976020;28;20212;-78
2021/11/07 16:45:37;;;;;;;12.63;3.33;;;;;;;;;;4991050;28;20274;-77
2021/11/07 16:48:05;;;;;;;10.98;4.65;;;;;;;;;;4976003;28;20267;-76
2021/11/07 16:50:37;;;;;;;14.85;4.57;;;;;;;;;;4975763;28;20188;-78
2021/11/07 16:53:05;;;;;;;17.17;4.45;;;;;;;;;;4990425;28;20192;-77
2021/11/07 16:55:39;;;;;;;17.60;5.13;;;;;;;;;;4975857;28;20187;-78
2021/11/07 16:58:07;;;;;;;16.75;4.13;;;;;;;;;;4975961;28;20160;-76
2021/11/07 17:00:38;;;;;;;11.55;4.70;;;;;;;;;;4975630;28;20180;-77
2021/11/07 17:03:27;;;;;;;15.10;4.45;;;;;;;;;;4975066;28;20196;-76
2021/11/07 17:08:27;;;;;;;12.93;4.10;;;;;;;;;;4995071;28;20187;-75
2021/11/07 17:10:53;;;;;;;18.92;4.20;;;;;;;;;;4997517;28;20192;-78
2021/11/07 17:13:21;;;;;;;18.90;4.57;;;;;;;;;;4975306;28;20203;-77
2021/11/07 17:15:56;;;;;;;14.10;4.80;;;;;;;;;;4975246;28;20195;-77
2021/11/07 17:18:25;;;;;;;25.65;5.10;;;;;;;;;;4990974;28;20234;-76
2021/11/07 17:26:12;;;;;;;8.55;3.55;;;;;;;;;;4975521;28;20184;-76
2021/11/07 17:29:04;;;;;;;13.45;4.47;;;;;;;;;;4975303;28;20176;-77
2021/11/07 17:31:36;;;;;;;17.52;4.68;;;;;;;;;;4973820;28;20575;-79